createdAt,value
2018-09-15T00:00:47.050Z,19.44
2018-09-15T00:03:15.220Z,19.60
2018-09-15T00:05:43.340Z,19.46
2018-09-15T00:08:11.605Z,19.50
2018-09-15T00:10:39.676Z,19.56
2018-09-15T00:13:10.256Z,19.56
2018-09-15T00:15:38.364Z,19.40
2018-09-15T00:18:09.429Z,19.49
2018-09-15T00:20:39.328Z,19.44
2018-09-15T00:23:09.112Z,19.43
2018-09-15T00:25:39.370Z,19.48
2018-09-15T00:28:11.176Z,19.04
2018-09-15T00:30:40.979Z,19.19
2018-09-15T00:33:09.843Z,19.20
2018-09-15T00:35:38.662Z,19.17
2018-09-15T00:38:06.929Z,19.15
2018-09-15T00:40:34.990Z,18.94
2018-09-15T00:43:03.147Z,19.01
2018-09-15T00:45:31.466Z,18.80
2018-09-15T00:47:59.582Z,18.84
2018-09-15T00:50:28.634Z,18.88
2018-09-15T00:52:57.606Z,18.93
2018-09-15T00:55:25.800Z,18.88
2018-09-15T00:57:53.915Z,18.76
2018-09-15T01:00:22.175Z,18.78
2018-09-15T01:02:50.812Z,18.74
2018-09-15T01:05:18.903Z,18.59
2018-09-15T01:07:46.928Z,18.44
2018-09-15T01:10:15.019Z,18.40
2018-09-15T01:12:43.070Z,18.39
2018-09-15T01:15:11.613Z,18.46
2018-09-15T01:17:40.127Z,18.32
2018-09-15T01:20:09.163Z,18.21
2018-09-15T01:22:37.223Z,18.35
2018-09-15T01:25:05.366Z,18.45
2018-09-15T01:27:33.951Z,18.23
2018-09-15T01:30:02.066Z,18.23
2018-09-15T01:32:30.394Z,18.11
2018-09-15T01:34:58.535Z,17.94
2018-09-15T01:37:27.920Z,17.99
2018-09-15T01:39:56.054Z,18.23
2018-09-15T01:42:24.559Z,18.05
2018-09-15T01:44:52.708Z,17.88
2018-09-15T01:47:20.831Z,18.01
2018-09-15T01:49:49.089Z,17.99
2018-09-15T01:52:17.688Z,17.88
2018-09-15T01:54:47.223Z,17.75
2018-09-15T01:57:16.104Z,17.67
2018-09-15T01:59:44.678Z,17.54
2018-09-15T02:02:12.906Z,17.85
2018-09-15T02:04:42.190Z,17.87
2018-09-15T02:07:10.425Z,17.78
2018-09-15T02:09:41.768Z,17.77
2018-09-15T02:12:10.032Z,17.72
2018-09-15T02:14:42.320Z,17.65
2018-09-15T02:17:11.584Z,17.58
2018-09-15T02:19:40.160Z,17.56
2018-09-15T02:22:10.104Z,17.58
2018-09-15T02:24:39.315Z,17.61
2018-09-15T02:27:10.558Z,17.56
2018-09-15T02:29:40.887Z,17.45
2018-09-15T02:32:10.181Z,17.55
2018-09-15T02:34:39.911Z,17.56
2018-09-15T02:37:08.994Z,17.47
2018-09-15T02:39:38.499Z,17.31
2018-09-15T02:42:08.105Z,17.31
2018-09-15T02:44:36.191Z,17.16
2018-09-15T02:47:05.104Z,17.34
2018-09-15T02:49:33.164Z,17.33
2018-09-15T02:52:01.673Z,17.04
2018-09-15T02:54:31.207Z,17.14
2018-09-15T02:56:59.440Z,16.96
2018-09-15T02:59:28.000Z,17.00
2018-09-15T03:01:57.511Z,17.00
2018-09-15T03:04:25.642Z,16.96
2018-09-15T03:06:53.759Z,17.07
2018-09-15T03:09:21.884Z,17.22
2018-09-15T03:11:50.055Z,16.99
2018-09-15T03:14:18.181Z,16.99
2018-09-15T03:16:48.818Z,17.15
2018-09-15T03:19:16.981Z,17.00
2018-09-15T03:21:45.054Z,16.84
2018-09-15T03:24:14.899Z,16.85
2018-09-15T03:26:42.950Z,16.87
2018-09-15T03:29:11.393Z,16.91
2018-09-15T03:31:39.678Z,16.64
2018-09-15T03:34:09.262Z,16.82
2018-09-15T03:36:37.367Z,16.85
2018-09-15T03:39:08.193Z,16.98
2018-09-15T03:41:36.440Z,16.80
2018-09-15T03:44:04.574Z,16.79
2018-09-15T03:46:32.664Z,16.83
2018-09-15T03:49:01.356Z,16.75
2018-09-15T03:51:30.909Z,16.73
2018-09-15T03:53:59.137Z,16.84
2018-09-15T03:56:27.248Z,16.73
2018-09-15T03:58:55.326Z,16.65
2018-09-15T04:01:23.404Z,16.64
2018-09-15T04:03:52.837Z,16.43
2018-09-15T04:06:21.875Z,16.68
2018-09-15T04:08:49.986Z,16.71
2018-09-15T04:11:18.198Z,16.83
2018-09-15T04:13:46.507Z,16.84
2018-09-15T04:16:15.415Z,16.73
2018-09-15T04:18:43.793Z,16.69
2018-09-15T04:21:12.475Z,16.78
2018-09-15T04:23:40.656Z,16.74
2018-09-15T04:26:09.539Z,16.75
2018-09-15T04:28:37.890Z,16.57
2018-09-15T04:31:06.860Z,16.56
2018-09-15T04:33:35.021Z,16.22
2018-09-15T04:36:03.173Z,16.45
2018-09-15T04:38:31.359Z,16.38
2018-09-15T04:40:59.443Z,16.27
2018-09-15T04:43:27.708Z,16.18
2018-09-15T04:45:55.823Z,16.28
2018-09-15T04:48:23.935Z,16.26
2018-09-15T04:50:52.096Z,16.34
2018-09-15T04:53:20.286Z,16.13
2018-09-15T04:55:49.379Z,16.15
2018-09-15T04:58:17.830Z,15.92
2018-09-15T05:00:46.318Z,16.09
2018-09-15T05:03:14.491Z,16.01
2018-09-15T05:05:42.591Z,16.15
2018-09-15T05:08:10.690Z,16.06
2018-09-15T05:10:39.659Z,15.93
2018-09-15T05:13:08.046Z,16.05
2018-09-15T05:15:36.991Z,16.09
2018-09-15T05:18:05.103Z,15.86
2018-09-15T05:20:33.241Z,15.84
2018-09-15T05:23:01.511Z,16.03
2018-09-15T05:25:29.630Z,16.09
2018-09-15T05:27:57.748Z,15.75
2018-09-15T05:30:26.085Z,15.97
2018-09-15T05:32:54.547Z,15.97
2018-09-15T05:35:22.631Z,16.14
2018-09-15T05:37:51.080Z,15.93
2018-09-15T05:40:19.358Z,15.98
2018-09-15T05:42:47.517Z,15.75
2018-09-15T05:45:17.177Z,16.03
2018-09-15T05:47:46.913Z,15.94
2018-09-15T05:50:15.260Z,16.06
2018-09-15T05:52:43.775Z,15.97
2018-09-15T05:55:12.116Z,15.73
2018-09-15T05:57:41.266Z,16.04
2018-09-15T06:05:08.747Z,16.07
2018-09-15T06:07:38.756Z,16.10
2018-09-15T06:10:09.036Z,16.15
2018-09-15T06:12:38.638Z,16.24
2018-09-15T06:15:06.728Z,16.01
2018-09-15T06:17:34.859Z,16.17
2018-09-15T06:20:04.791Z,16.43
2018-09-15T06:22:39.421Z,16.32
2018-09-15T06:25:07.669Z,16.27
2018-09-15T06:27:36.076Z,16.18
2018-09-15T06:30:06.035Z,16.37
2018-09-15T06:32:34.728Z,16.43
2018-09-15T06:35:03.742Z,16.63
2018-09-15T06:37:32.798Z,16.60
2018-09-15T06:40:01.858Z,16.69
2018-09-15T06:42:30.135Z,16.91
2018-09-15T06:44:58.485Z,16.70
2018-09-15T06:47:26.656Z,16.54
2018-09-15T06:49:55.603Z,16.73
2018-09-15T06:52:23.727Z,16.89
2018-09-15T06:54:51.888Z,16.98
2018-09-15T06:57:20.061Z,16.72
2018-09-15T06:59:49.427Z,16.93
2018-09-15T07:02:17.531Z,17.15
2018-09-15T07:04:46.782Z,17.04
2018-09-15T07:07:14.881Z,16.93
2018-09-15T07:09:43.484Z,16.96
2018-09-15T07:12:12.017Z,17.43
2018-09-15T07:14:41.258Z,17.35
2018-09-15T07:17:10.499Z,17.42
2018-09-15T07:19:38.683Z,17.48
2018-09-15T07:22:08.111Z,17.53
2018-09-15T07:24:37.351Z,17.62
2018-09-15T07:27:06.469Z,17.51
2018-09-15T07:29:35.469Z,17.74
2018-09-15T07:32:03.871Z,17.62
2018-09-15T07:34:31.987Z,17.73
2018-09-15T07:37:00.127Z,17.84
2018-09-15T07:39:29.503Z,17.83
2018-09-15T07:41:58.175Z,17.82
2018-09-15T07:44:26.776Z,17.93
2018-09-15T07:46:54.982Z,17.91
2018-09-15T07:49:24.026Z,18.08
2018-09-15T07:51:52.642Z,18.07
2018-09-15T07:54:20.988Z,18.16
2018-09-15T07:56:49.190Z,18.35
2018-09-15T07:59:17.853Z,18.27
2018-09-15T08:01:46.804Z,18.35
2018-09-15T08:04:15.641Z,18.34
2018-09-15T08:06:43.979Z,18.35
2018-09-15T08:09:14.439Z,18.13
2018-09-15T08:11:42.982Z,18.30
2018-09-15T08:14:11.086Z,18.59
2018-09-15T08:16:39.204Z,18.65
2018-09-15T08:19:09.799Z,18.63
2018-09-15T08:21:37.926Z,18.61
2018-09-15T08:24:07.291Z,18.73
2018-09-15T08:26:37.337Z,18.89
2018-09-15T08:29:06.655Z,18.97
2018-09-15T08:31:35.283Z,18.97
2018-09-15T08:34:03.575Z,19.03
2018-09-15T08:36:32.195Z,19.32
2018-09-15T08:39:00.372Z,19.27
2018-09-15T08:41:28.968Z,19.10
2018-09-15T08:43:58.885Z,19.06
2018-09-15T08:46:27.038Z,19.12
2018-09-15T08:48:55.194Z,19.39
2018-09-15T08:51:23.598Z,19.58
2018-09-15T08:53:52.218Z,19.42
2018-09-15T08:56:21.212Z,19.34
2018-09-15T08:58:50.939Z,19.45
2018-09-15T09:01:19.217Z,19.42
2018-09-15T09:03:49.550Z,19.53
2018-09-15T09:06:19.029Z,19.01
2018-09-15T09:09:07.148Z,18.80
2018-09-15T09:12:00.427Z,19.28
2018-09-15T09:14:28.619Z,19.76
2018-09-15T09:16:57.088Z,19.24
2018-09-15T09:19:27.814Z,19.63
2018-09-15T09:21:56.129Z,19.90
2018-09-15T09:24:24.966Z,20.12
2018-09-15T09:26:53.740Z,20.17
2018-09-15T09:29:23.990Z,19.62
2018-09-15T09:31:53.812Z,20.09
2018-09-15T09:34:26.430Z,20.15
2018-09-15T09:36:54.537Z,20.26
2018-09-15T09:39:24.735Z,20.61
2018-09-15T09:41:54.346Z,20.62
2018-09-15T09:44:22.494Z,20.54
2018-09-15T09:46:50.815Z,20.79
2018-09-15T09:49:19.015Z,20.96
2018-09-15T09:51:53.344Z,21.03
2018-09-15T09:54:40.189Z,20.98
2018-09-15T09:57:09.840Z,21.28
2018-09-15T09:59:38.649Z,21.33
2018-09-15T10:02:18.880Z,21.75
2018-09-15T10:04:46.992Z,20.93
2018-09-15T10:07:15.217Z,21.04
2018-09-15T10:09:43.359Z,21.29
2018-09-15T10:12:12.871Z,20.82
2018-09-15T10:14:41.164Z,21.69
2018-09-15T10:17:11.871Z,21.67
2018-09-15T10:19:40.253Z,21.07
2018-09-15T10:22:09.827Z,22.35
2018-09-15T10:24:38.152Z,21.97
2018-09-15T10:27:06.227Z,21.95
2018-09-15T10:29:34.338Z,22.06
2018-09-15T10:32:02.466Z,22.82
2018-09-15T10:34:30.655Z,22.15
2018-09-15T10:36:59.734Z,21.20
2018-09-15T10:39:28.349Z,22.53
2018-09-15T10:41:57.252Z,22.52
2018-09-15T10:44:25.749Z,22.39
2018-09-15T10:46:53.894Z,22.91
2018-09-15T10:49:23.815Z,22.89
2018-09-15T10:51:53.892Z,23.76
2018-09-15T10:54:24.956Z,24.10
2018-09-15T10:56:53.163Z,24.31
2018-09-15T10:59:21.251Z,24.76
2018-09-15T11:01:49.379Z,24.74
2018-09-15T11:04:17.968Z,25.16
2018-09-15T11:06:46.058Z,25.15
2018-09-15T11:09:14.115Z,24.61
2018-09-15T11:11:42.282Z,24.82
2018-09-15T11:14:11.437Z,24.82
2018-09-15T11:16:39.624Z,26.59
2018-09-15T11:19:07.716Z,27.19
2018-09-15T11:21:35.819Z,26.83
2018-09-15T11:24:03.954Z,24.63
2018-09-15T11:26:32.045Z,24.24
2018-09-15T11:29:00.274Z,23.83
2018-09-15T11:31:30.404Z,24.10
2018-09-15T11:33:58.850Z,23.89
2018-09-15T11:36:26.936Z,23.76
2018-09-15T11:38:55.007Z,23.62
2018-09-15T11:41:23.151Z,24.54
2018-09-15T11:43:52.162Z,25.64
2018-09-15T11:46:20.367Z,25.51
2018-09-15T11:48:48.519Z,26.49
2018-09-15T11:51:16.635Z,25.50
2018-09-15T11:53:44.791Z,26.33
2018-09-15T11:56:12.913Z,25.46
2018-09-15T11:58:42.439Z,25.27
2018-09-15T12:01:11.520Z,24.44
2018-09-15T12:03:39.843Z,24.25
2018-09-15T12:06:07.964Z,26.83
2018-09-15T12:08:36.047Z,26.34
2018-09-15T12:11:04.291Z,26.29
2018-09-15T12:13:32.636Z,29.41
2018-09-15T12:16:01.338Z,31.41
2018-09-15T12:18:29.560Z,32.37
2018-09-15T12:20:59.216Z,33.40
2018-09-15T12:23:27.337Z,32.38
2018-09-15T12:25:55.566Z,34.02
2018-09-15T12:28:23.723Z,34.77
2018-09-15T12:30:52.895Z,34.10
2018-09-15T12:33:21.631Z,34.20
2018-09-15T12:35:49.764Z,30.72
2018-09-15T12:38:18.080Z,27.58
2018-09-15T12:40:46.322Z,27.33
2018-09-15T12:43:15.491Z,27.17
2018-09-15T12:45:43.708Z,27.02
2018-09-15T12:48:12.108Z,26.92
2018-09-15T12:50:40.947Z,27.55
2018-09-15T12:53:09.706Z,27.35
2018-09-15T12:55:38.031Z,26.84
2018-09-15T12:58:06.169Z,26.88
2018-09-15T13:00:34.435Z,25.92
2018-09-15T13:03:02.771Z,26.26
2018-09-15T13:05:30.928Z,26.60
2018-09-15T13:08:00.060Z,26.98
2018-09-15T13:10:28.223Z,27.20
2018-09-15T13:12:57.240Z,35.49
2018-09-15T13:15:25.371Z,31.09
2018-09-15T13:17:53.607Z,30.34
2018-09-15T13:20:21.673Z,32.73
2018-09-15T13:22:49.896Z,29.22
2018-09-15T13:25:17.976Z,28.16
2018-09-15T13:27:46.275Z,27.35
2018-09-15T13:30:14.428Z,26.91
2018-09-15T13:32:42.493Z,26.32
2018-09-15T13:35:10.611Z,26.83
2018-09-15T13:37:38.935Z,27.13
2018-09-15T13:40:08.152Z,27.61
2018-09-15T13:42:36.812Z,26.78
2018-09-15T13:45:05.108Z,27.34
2018-09-15T13:47:33.967Z,33.45
2018-09-15T13:50:02.334Z,34.00
2018-09-15T13:52:30.483Z,29.81
2018-09-15T13:54:58.651Z,28.52
2018-09-15T13:57:26.832Z,26.69
2018-09-15T13:59:55.045Z,27.34
2018-09-15T14:02:23.190Z,27.88
2018-09-15T14:04:51.398Z,28.82
2018-09-15T14:07:20.028Z,30.28
2018-09-15T14:09:48.112Z,34.43
2018-09-15T14:12:16.236Z,32.38
2018-09-15T14:14:44.485Z,38.74
2018-09-15T14:17:12.583Z,39.10
2018-09-15T14:19:40.769Z,38.92
2018-09-15T14:22:08.903Z,36.27
2018-09-15T14:24:37.193Z,32.01
2018-09-15T14:27:05.504Z,34.73
2018-09-15T14:29:33.775Z,39.16
2018-09-15T14:32:01.929Z,38.66
2018-09-15T14:34:30.137Z,36.78
2018-09-15T14:36:58.376Z,30.07
2018-09-15T14:39:26.535Z,31.70
2018-09-15T14:41:54.712Z,40.13
2018-09-15T14:44:22.846Z,31.74
2018-09-15T14:46:51.520Z,30.52
2018-09-15T14:49:21.144Z,37.67
2018-09-15T14:51:49.248Z,40.68
2018-09-15T14:54:17.627Z,41.99
2018-09-15T14:56:46.109Z,42.56
2018-09-15T14:59:14.255Z,43.11
2018-09-15T15:06:35.140Z,42.01
2018-09-15T15:09:05.371Z,37.61
2018-09-15T15:11:33.595Z,32.89
2018-09-15T15:14:02.016Z,32.21
2018-09-15T15:16:30.263Z,35.35
2018-09-15T15:18:59.824Z,39.05
2018-09-15T15:21:28.113Z,34.87
2018-09-15T15:23:56.242Z,38.81
2018-09-15T15:26:24.414Z,38.22
2018-09-15T15:28:52.883Z,38.77
2018-09-15T15:31:21.103Z,35.21
2018-09-15T15:33:49.855Z,37.12
2018-09-15T15:36:18.585Z,36.79
2018-09-15T15:38:46.731Z,38.99
2018-09-15T15:41:14.967Z,38.91
2018-09-15T15:43:44.388Z,38.82
2018-09-15T15:46:12.698Z,39.74
2018-09-15T15:48:41.288Z,40.10
2018-09-15T15:51:09.495Z,39.34
2018-09-15T15:53:37.688Z,34.19
2018-09-15T15:56:05.930Z,32.51
2018-09-15T15:58:34.421Z,33.16
2018-09-15T16:01:02.478Z,35.78
2018-09-15T16:03:31.000Z,31.25
2018-09-15T16:05:59.373Z,33.18
2018-09-15T16:08:28.136Z,35.32
2018-09-15T16:10:56.349Z,33.61
2018-09-15T16:13:24.947Z,30.70
2018-09-15T16:15:53.111Z,30.13
2018-09-15T16:18:21.385Z,28.38
2018-09-15T16:20:49.662Z,28.21
2018-09-15T16:23:17.971Z,28.77
2018-09-15T16:25:46.796Z,30.64
2018-09-15T16:28:16.274Z,28.48
2018-09-15T16:30:44.498Z,27.35
2018-09-15T16:33:13.597Z,27.24
2018-09-15T16:35:42.724Z,26.98
2018-09-15T16:38:10.842Z,27.38
2018-09-15T16:40:40.388Z,26.88
2018-09-15T16:43:10.863Z,27.19
2018-09-15T16:45:39.676Z,26.69
2018-09-15T16:48:08.435Z,26.22
2018-09-15T16:50:36.940Z,25.79
2018-09-15T16:53:05.615Z,25.79
2018-09-15T16:55:33.775Z,26.02
2018-09-15T16:58:01.995Z,26.10
2018-09-15T17:00:30.634Z,26.08
2018-09-15T17:03:01.744Z,25.67
2018-09-15T17:05:30.311Z,25.39
2018-09-15T17:07:59.192Z,25.42
2018-09-15T17:10:27.281Z,25.48
2018-09-15T17:12:56.189Z,25.67
2018-09-15T17:15:24.294Z,25.58
2018-09-15T17:17:52.473Z,25.52
2018-09-15T17:20:20.640Z,25.45
2018-09-15T17:22:48.890Z,25.34
2018-09-15T17:25:17.068Z,25.18
2018-09-15T17:27:45.347Z,25.27
2018-09-15T17:30:13.611Z,25.09
2018-09-15T17:32:42.037Z,24.93
2018-09-15T17:35:10.215Z,24.73
2018-09-15T17:37:38.298Z,24.79
2018-09-15T17:40:06.406Z,24.63
2018-09-15T17:42:34.549Z,24.60
2018-09-15T17:45:02.694Z,24.48
2018-09-15T17:47:31.395Z,24.25
2018-09-15T17:49:59.514Z,24.27
2018-09-15T17:52:27.667Z,24.24
2018-09-15T17:54:55.860Z,23.91
2018-09-15T17:57:23.926Z,23.87
2018-09-15T17:59:52.083Z,23.83
2018-09-15T18:02:20.292Z,23.85
2018-09-15T18:04:48.441Z,23.84
2018-09-15T18:07:16.523Z,23.78
2018-09-15T18:09:45.726Z,23.67
2018-09-15T18:12:13.790Z,23.49
2018-09-15T18:14:41.982Z,23.57
2018-09-15T18:17:10.084Z,23.29
2018-09-15T18:19:38.549Z,23.29
2018-09-15T18:22:08.334Z,23.07
2018-09-15T18:24:36.730Z,23.16
2018-09-15T18:27:05.862Z,23.11
2018-09-15T18:29:33.982Z,22.90
2018-09-15T18:32:04.038Z,22.91
2018-09-15T18:34:33.141Z,22.95
2018-09-15T18:37:01.467Z,22.88
2018-09-15T18:39:30.372Z,22.62
2018-09-15T18:41:58.649Z,22.65
2018-09-15T18:44:26.940Z,22.63
2018-09-15T18:46:55.183Z,22.49
2018-09-15T18:49:23.487Z,22.44
2018-09-15T18:51:51.873Z,22.43
2018-09-15T18:54:20.024Z,22.44
2018-09-15T18:56:48.150Z,22.32
2018-09-15T18:59:16.358Z,22.32
2018-09-15T19:01:44.543Z,22.26
2018-09-15T19:04:15.146Z,22.14
2018-09-15T19:06:43.815Z,21.99
2018-09-15T19:09:15.264Z,21.85
2018-09-15T19:11:43.904Z,21.80
2018-09-15T19:14:14.402Z,21.72
2018-09-15T19:16:47.006Z,21.57
2018-09-15T19:19:15.098Z,21.60
2018-09-15T19:21:43.716Z,21.47
2018-09-15T19:24:11.975Z,21.35
2018-09-15T19:26:40.189Z,21.56
2018-09-15T19:29:10.355Z,21.53
2018-09-15T19:31:38.972Z,21.50
2018-09-15T19:34:07.174Z,21.46
2018-09-15T19:36:35.333Z,21.38
2018-09-15T19:39:06.642Z,21.43
2018-09-15T19:41:34.880Z,21.35
2018-09-15T19:44:03.706Z,21.16
2018-09-15T19:46:31.906Z,21.11
2018-09-15T19:49:00.167Z,21.07
2018-09-15T19:51:28.426Z,21.16
2018-09-15T19:53:56.745Z,20.95
2018-09-15T19:56:25.015Z,20.93
2018-09-15T19:58:54.033Z,20.82
2018-09-15T20:01:23.874Z,20.64
2018-09-15T20:03:53.718Z,20.59
2018-09-15T20:06:21.940Z,20.33
2018-09-15T20:08:50.105Z,20.67
2018-09-15T20:11:18.731Z,20.47
2018-09-15T20:13:47.953Z,20.43
2018-09-15T20:16:15.138Z,20.27
2018-09-15T20:18:43.662Z,20.38
2018-09-15T20:21:10.725Z,20.27
2018-09-15T20:23:38.923Z,20.11
2018-09-15T20:26:08.245Z,20.26
2018-09-15T20:28:36.629Z,20.15
2018-09-15T20:31:05.304Z,20.12
2018-09-15T20:33:33.687Z,20.26
2018-09-15T20:36:01.914Z,20.19
2018-09-15T20:38:30.261Z,20.37
2018-09-15T20:40:58.467Z,20.30
2018-09-15T20:43:27.163Z,20.14
2018-09-15T20:45:55.277Z,20.19
2018-09-15T20:48:23.558Z,20.17
2018-09-15T20:50:51.752Z,20.17
2018-09-15T20:53:19.898Z,20.00
2018-09-15T20:55:48.766Z,19.93
2018-09-15T20:58:16.943Z,19.99
2018-09-15T21:00:45.391Z,19.74
2018-09-15T21:03:14.023Z,19.72
2018-09-15T21:05:44.994Z,19.74
2018-09-15T21:08:13.757Z,19.61
2018-09-15T21:10:42.227Z,19.72
2018-09-15T21:13:13.095Z,19.70
2018-09-15T21:15:41.456Z,19.54
2018-09-15T21:18:09.982Z,19.78
2018-09-15T21:20:38.655Z,19.68
2018-09-15T21:23:07.027Z,19.61
2018-09-15T21:25:35.218Z,19.56
2018-09-15T21:28:03.356Z,19.47
2018-09-15T21:30:31.607Z,19.38
2018-09-15T21:32:59.770Z,19.47
2018-09-15T21:35:28.759Z,19.33
2018-09-15T21:37:56.839Z,19.22
2018-09-15T21:40:26.005Z,19.27
2018-09-15T21:42:55.275Z,19.17
2018-09-15T21:45:23.416Z,18.96
2018-09-15T21:47:51.533Z,19.07
2018-09-15T21:50:20.765Z,18.97
2018-09-15T21:52:49.356Z,19.01
2018-09-15T21:55:17.622Z,18.95
2018-09-15T21:57:45.698Z,19.02
2018-09-15T22:00:14.527Z,18.99
2018-09-15T22:02:42.647Z,19.00
2018-09-15T22:05:10.857Z,18.85
2018-09-15T22:07:38.974Z,18.93
2018-09-15T22:10:07.034Z,18.93
2018-09-15T22:12:35.115Z,18.96
2018-09-15T22:15:03.974Z,18.85
2018-09-15T22:17:32.260Z,18.87
2018-09-15T22:20:00.430Z,18.81
2018-09-15T22:22:30.954Z,18.84
2018-09-15T22:24:59.489Z,18.74
2018-09-15T22:27:27.567Z,18.69
2018-09-15T22:29:55.918Z,18.68
2018-09-15T22:32:24.182Z,18.61
2018-09-15T22:34:52.497Z,18.57
2018-09-15T22:37:20.675Z,18.52
2018-09-15T22:39:48.766Z,18.57
2018-09-15T22:42:17.130Z,18.63
2018-09-15T22:44:45.297Z,18.18
2018-09-15T22:47:14.465Z,18.51
2018-09-15T22:49:43.555Z,18.43
2018-09-15T22:52:11.620Z,18.42
2018-09-15T22:54:42.922Z,18.37
2018-09-15T22:57:11.343Z,18.23
2018-09-15T22:59:39.619Z,18.18
2018-09-15T23:02:07.860Z,18.23
2018-09-15T23:04:35.970Z,18.25
2018-09-15T23:07:04.261Z,18.15
2018-09-15T23:09:32.591Z,18.23
2018-09-15T23:12:02.313Z,18.22
2018-09-15T23:14:32.211Z,18.13
2018-09-15T23:17:02.842Z,18.17
2018-09-15T23:19:30.971Z,18.21
2018-09-15T23:21:59.143Z,18.24
2018-09-15T23:24:27.343Z,18.15
2018-09-15T23:26:57.310Z,18.09
2018-09-15T23:29:25.767Z,18.00
2018-09-15T23:31:53.951Z,17.87
2018-09-15T23:34:22.415Z,17.89
2018-09-15T23:36:51.639Z,17.91
2018-09-15T23:39:21.216Z,17.98
2018-09-15T23:41:49.416Z,17.82
2018-09-15T23:44:17.778Z,17.87
2018-09-15T23:46:46.063Z,17.67
2018-09-15T23:49:14.830Z,17.69
2018-09-15T23:51:43.258Z,17.69
2018-09-15T23:54:11.744Z,17.69
2018-09-15T23:56:41.466Z,17.81
2018-09-15T23:59:09.859Z,17.83
